EDT,Max TemperatureF,Mean TemperatureF,Min TemperatureF,Max Dew PointF,MeanDew PointF,Min DewpointF,Max Humidity, Mean Humidity, Min Humidity, Max Sea Level PressureIn, Mean Sea Level PressureIn, Min Sea Level PressureIn, Max VisibilityMiles, Mean VisibilityMiles, Min VisibilityMiles, Max Wind SpeedMPH, Mean Wind SpeedMPH, Max Gust SpeedMPH,PrecipitationIn, CloudCover, Events, WindDirDegrees
2013-4-1,61,50,39,41,36,25,71,56,40,30.04,29.89,29.85,10,10,10,29,11,41,T,3,,287
2013-4-2,54,45,35,24,14,7,52,34,16,30.19,30.12,30.04,10,10,10,24,11,29,0.00,1,,312
2013-4-3,56,44,32,15,11,6,44,29,14,30.36,30.27,30.20,10,10,10,23,7,26,0.00,0,,313
2013-4-4,43,38,33,32,23,10,89,59,28,30.41,30.26,30.04,10,6,0,13,6,18,0.63,5,Fog-Rain-Snow,77
2013-4-5,65,50,34,39,32,26,96,61,25,30.06,29.98,29.91,10,7,2,20,7,25,0.07,5,Rain,309
2013-4-6,62,48,34,31,28,22,70,49,27,30.27,30.20,30.07,10,10,10,15,5,20,0.00,0,,122
2013-4-7,73,57,41,42,36,23,73,50,27,30.24,30.15,30.04,10,10,10,17,7,23,0.00,1,,166
2013-4-8,80,65,49,48,44,41,71,56,41,30.13,30.06,29.99,10,10,10,20,7,25,0.00,2,,219
2013-4-9,87,72,57,51,48,46,67,46,25,30.15,30.08,30.01,10,10,10,18,8,24,0.00,0,,246
2013-4-10,90,78,65,54,51,41,63,41,19,30.06,29.98,29.88,10,10,10,18,8,25,0.00,0,,239
2013-4-11,85,76,66,58,53,45,63,45,26,29.91,29.83,29.71,10,10,10,24,9,37,0.05,1,,199
2013-4-12,76,66,56,64,55,34,97,63,29,29.81,29.68,29.63,10,8,2,28,12,37,1.16,6,Rain-Thunderstorm,223
2013-4-13,74,64,53,35,30,24,46,32,17,30.00,29.91,29.83,10,10,10,31,12,40,0.00,0,,289
2013-4-14,79,64,48,41,34,28,56,39,21,30.10,30.04,29.98,10,10,10,18,7,25,T,1,Rain,181
2013-4-15,63,58,53,52,50,43,93,71,48,30.27,30.17,30.08,10,9,2,12,6,18,0.26,8,Rain,111
2013-4-16,76,66,56,59,56,52,100,77,53,30.32,30.25,30.16,10,6,0,15,7,20,T,6,Fog,140
2013-4-17,80,71,62,59,57,56,84,65,45,30.24,30.17,30.11,10,10,10,13,4,16,T,2,,258
2013-4-18,77,69,60,61,57,51,93,68,43,30.18,30.09,29.96,10,9,1,22,9,28,T,6,,148
2013-4-19,71,60,49,65,57,35,84,69,54,29.93,29.81,29.68,10,9,2,26,12,33,0.43,8,Rain-Thunderstorm,192
2013-4-20,61,52,42,32,26,22,54,39,24,30.33,30.12,29.91,10,10,10,26,13,36,0.00,1,,302
2013-4-21,57,46,34,31,29,25,70,53,35,30.54,30.46,30.34,10,10,10,14,6,18,0.00,0,,113
2013-4-22,61,48,35,33,29,22,79,51,23,30.52,30.43,30.31,10,10,10,16,5,21,0.00,1,,106
2013-4-23,69,58,47,46,41,35,71,57,42,30.34,30.22,30.10,10,10,10,15,5,20,0.00,4,,113
2013-4-24,78,63,47,57,48,43,86,61,36,30.11,30.02,29.89,10,10,10,26,8,35,0.03,2,,201
2013-4-25,68,54,39,39,27,16,64,39,14,30.32,30.24,30.10,10,10,10,21,8,26,0.00,1,,308
2013-4-26,68,53,38,35,31,23,70,48,26,30.47,30.39,30.33,10,10,10,14,4,20,0.00,0,,125
2013-4-27,67,58,49,49,42,38,72,56,40,30.38,30.33,30.26,10,10,10,12,3,15,T,5,Rain,139
2013-4-28,58,55,52,53,50,48,93,83,72,30.26,30.19,30.10,10,8,3,21,7,26,0.29,8,Rain,128
2013-4-29,68,60,51,55,52,48,96,80,63,30.12,30.06,29.99,10,8,3,12,2,14,0.02,7,Rain,139
2013-4-30,69,63,57,55,54,52,93,76,59,30.24,30.14,30.05,10,10,9,16,6,21,0.00,8,,130